createdAt,value
2023-01-21T00:01:17.118Z,13.30
2023-01-21T00:03:45.216Z,12.27
2023-01-21T00:06:15.196Z,14.48
2023-01-21T00:08:48.077Z,14.88
2023-01-21T00:11:16.586Z,14.95
2023-01-21T00:13:44.812Z,13.23
2023-01-21T00:16:14.420Z,13.02
2023-01-21T00:18:42.062Z,14.30
2023-01-21T00:21:09.124Z,14.27
2023-01-21T00:23:37.020Z,15.38
2023-01-21T00:26:06.686Z,15.90
2023-01-21T00:28:36.474Z,15.85
2023-01-21T00:31:06.224Z,16.00
2023-01-21T00:33:33.938Z,16.70
2023-01-21T00:36:14.281Z,14.30
2023-01-21T00:38:41.338Z,16.60
2023-01-21T00:41:11.038Z,16.13
2023-01-21T00:43:39.581Z,14.98
2023-01-21T00:46:07.275Z,13.95
2023-01-21T00:48:34.737Z,16.33
2023-01-21T00:51:02.004Z,18.10
2023-01-21T00:53:31.001Z,20.45
2023-01-21T00:56:03.077Z,19.67
2023-01-21T00:58:30.817Z,19.70
2023-01-21T01:01:27.081Z,18.30
2023-01-21T01:03:54.189Z,17.25
2023-01-21T01:06:23.053Z,14.73
2023-01-21T01:08:50.495Z,13.77
2023-01-21T01:11:18.712Z,15.13
2023-01-21T01:13:45.804Z,14.55
2023-01-21T01:16:14.660Z,15.10
2023-01-21T01:18:41.687Z,14.43
2023-01-21T01:21:12.748Z,13.60
2023-01-21T01:23:40.049Z,14.75
2023-01-21T01:26:10.320Z,15.35
2023-01-21T01:28:37.340Z,14.57
2023-01-21T01:31:06.464Z,14.13
2023-01-21T01:33:34.222Z,15.23
2023-01-21T01:36:06.531Z,13.32
2023-01-21T01:38:35.230Z,13.40
2023-01-21T01:41:02.460Z,13.93
2023-01-21T01:43:48.106Z,14.48
2023-01-21T01:46:15.103Z,16.73
2023-01-21T01:48:44.691Z,14.45
2023-01-21T01:51:13.427Z,14.52
2023-01-21T01:53:45.457Z,16.50
2023-01-21T01:56:13.215Z,17.70
2023-01-21T01:58:40.335Z,20.17
2023-01-21T02:01:07.478Z,22.30
2023-01-21T02:03:45.099Z,19.75
2023-01-21T02:06:16.301Z,19.90
2023-01-21T02:08:46.250Z,18.85
2023-01-21T02:11:18.287Z,22.05
2023-01-21T02:13:57.911Z,23.40
2023-01-21T02:16:51.175Z,20.92
2023-01-21T02:19:36.669Z,20.55
2023-01-21T02:22:06.619Z,19.85
2023-01-21T02:24:39.360Z,17.50
2023-01-21T02:27:30.510Z,12.27
2023-01-21T02:30:04.136Z,16.42
2023-01-21T02:33:05.895Z,15.52
2023-01-21T02:35:39.643Z,17.73
2023-01-21T02:38:25.553Z,18.33
2023-01-21T02:41:23.563Z,19.35
2023-01-21T02:44:09.347Z,16.58
2023-01-21T02:46:48.266Z,17.00
2023-01-21T02:49:40.337Z,14.40
2023-01-21T02:52:07.429Z,15.20
2023-01-21T02:54:40.313Z,13.98
2023-01-21T02:57:18.452Z,14.30
2023-01-21T02:59:49.905Z,15.80
2023-01-21T03:02:38.751Z,15.02
2023-01-21T03:05:30.591Z,14.52
2023-01-21T03:08:23.423Z,14.95
2023-01-21T03:11:13.199Z,13.95
2023-01-21T03:14:09.159Z,14.40
2023-01-21T03:16:58.763Z,14.05
2023-01-21T03:19:56.234Z,14.38
2023-01-21T03:22:27.919Z,16.15
2023-01-21T03:24:57.724Z,13.65
2023-01-21T03:27:28.105Z,15.70
2023-01-21T03:30:00.248Z,14.95
2023-01-21T03:32:31.423Z,15.88
2023-01-21T03:35:00.144Z,16.02
2023-01-21T03:37:36.321Z,15.95
2023-01-21T03:40:21.865Z,16.40
2023-01-21T03:42:56.370Z,16.75
2023-01-21T03:45:34.797Z,16.92
2023-01-21T03:48:12.234Z,15.00
2023-01-21T03:50:43.337Z,14.20
2023-01-21T03:53:10.580Z,16.95
2023-01-21T03:55:37.551Z,15.93
2023-01-21T03:58:04.712Z,16.42
2023-01-21T04:00:31.745Z,16.17
2023-01-21T04:02:58.777Z,16.75
2023-01-21T04:05:25.799Z,16.90
2023-01-21T04:07:53.318Z,16.02
2023-01-21T04:10:20.405Z,15.07
2023-01-21T04:12:47.362Z,14.88
2023-01-21T04:15:14.402Z,14.43
2023-01-21T04:17:41.454Z,14.10
2023-01-21T04:20:09.301Z,14.05
2023-01-21T04:22:36.484Z,14.00
2023-01-21T04:25:05.315Z,14.38
2023-01-21T04:27:32.418Z,13.43
2023-01-21T04:29:59.465Z,14.55
2023-01-21T04:32:26.439Z,14.70
2023-01-21T04:34:53.712Z,14.30
2023-01-21T04:37:20.707Z,13.82
2023-01-21T04:39:47.705Z,13.18
2023-01-21T04:42:14.705Z,14.88
2023-01-21T04:44:41.758Z,14.88
2023-01-21T04:47:08.787Z,13.80
2023-01-21T04:49:35.735Z,14.15
2023-01-21T04:52:02.839Z,14.90
2023-01-21T04:54:29.912Z,14.93
2023-01-21T04:56:56.934Z,15.95
2023-01-21T04:59:23.947Z,15.77
2023-01-21T05:01:50.954Z,16.77
2023-01-21T05:04:18.113Z,16.70
2023-01-21T05:06:45.153Z,17.05
2023-01-21T05:09:12.144Z,16.67
2023-01-21T05:11:39.223Z,18.30
2023-01-21T05:14:06.241Z,17.98
2023-01-21T05:16:33.313Z,20.30
2023-01-21T05:19:00.343Z,21.95
2023-01-21T05:21:27.331Z,22.60
2023-01-21T05:23:54.764Z,19.70
2023-01-21T05:26:21.835Z,21.80
2023-01-21T05:28:49.065Z,19.17
2023-01-21T05:31:16.247Z,19.83
2023-01-21T05:33:45.529Z,19.52
2023-01-21T05:36:12.902Z,19.50
2023-01-21T05:38:40.061Z,17.52
2023-01-21T05:41:07.130Z,19.75
2023-01-21T05:43:34.387Z,15.82
2023-01-21T05:46:01.642Z,15.32
2023-01-21T05:48:29.828Z,17.23
2023-01-21T05:50:58.491Z,17.15
2023-01-21T05:53:26.381Z,18.42
2023-01-21T05:55:57.652Z,17.27
2023-01-21T05:58:25.746Z,16.85
2023-01-21T06:00:53.528Z,16.30
2023-01-21T06:03:20.859Z,18.92
2023-01-21T06:05:50.180Z,18.10
2023-01-21T06:08:17.998Z,16.30
2023-01-21T06:10:45.178Z,16.65
2023-01-21T06:13:14.102Z,16.85
2023-01-21T06:15:41.142Z,17.30
2023-01-21T06:18:08.600Z,17.10
2023-01-21T06:20:36.881Z,16.98
2023-01-21T06:23:04.629Z,17.38
2023-01-21T06:25:33.003Z,16.23
2023-01-21T06:28:01.254Z,16.60
2023-01-21T06:30:28.619Z,18.35
2023-01-21T06:32:55.958Z,17.60
2023-01-21T06:35:23.563Z,16.10
2023-01-21T06:37:50.756Z,17.08
2023-01-21T06:40:18.503Z,17.38
2023-01-21T06:42:47.074Z,18.10
2023-01-21T06:45:14.914Z,17.50
2023-01-21T06:47:43.370Z,18.50
2023-01-21T06:50:15.594Z,18.13
2023-01-21T06:52:44.742Z,13.80
2023-01-21T06:55:12.370Z,18.27
2023-01-21T06:57:39.797Z,19.70
2023-01-21T07:00:08.738Z,18.77
2023-01-21T07:02:36.088Z,18.70
2023-01-21T07:05:03.796Z,18.67
2023-01-21T07:07:30.875Z,20.63
2023-01-21T07:09:58.631Z,20.45
2023-01-21T07:12:25.815Z,21.27
2023-01-21T07:14:52.860Z,20.88
2023-01-21T07:17:20.084Z,21.90
2023-01-21T07:19:47.065Z,25.63
2023-01-21T07:22:14.194Z,26.05
2023-01-21T07:24:41.222Z,25.90
2023-01-21T07:27:08.740Z,26.83
2023-01-21T07:29:35.887Z,24.00
2023-01-21T07:32:03.151Z,23.50
2023-01-21T07:34:30.211Z,22.05
2023-01-21T07:36:57.345Z,20.80
2023-01-21T07:39:25.348Z,20.98
2023-01-21T07:41:52.367Z,21.75
2023-01-21T07:44:19.589Z,21.23
2023-01-21T07:46:46.682Z,20.98
2023-01-21T07:49:17.425Z,21.98
2023-01-21T07:51:48.143Z,21.48
2023-01-21T07:54:15.516Z,21.38
2023-01-21T07:56:42.716Z,20.98
2023-01-21T07:59:11.560Z,18.08
2023-01-21T08:01:38.754Z,21.63
2023-01-21T08:04:07.308Z,22.23
2023-01-21T08:06:34.420Z,23.50
2023-01-21T08:09:01.466Z,22.00
2023-01-21T08:11:28.469Z,19.08
2023-01-21T08:13:55.464Z,18.73
2023-01-21T08:16:22.668Z,20.20
2023-01-21T08:18:49.962Z,18.13
2023-01-21T08:21:17.073Z,18.80
2023-01-21T08:23:44.265Z,17.83
2023-01-21T08:26:11.315Z,19.42
2023-01-21T08:28:38.430Z,15.82
2023-01-21T08:31:11.677Z,16.88
2023-01-21T08:36:08.295Z,15.98
2023-01-21T08:38:35.862Z,16.35
2023-01-21T08:41:02.992Z,15.23
2023-01-21T08:43:30.242Z,17.02
2023-01-21T08:45:58.739Z,15.95
2023-01-21T08:48:25.956Z,15.32
2023-01-21T08:50:52.986Z,15.35
2023-01-21T08:53:20.286Z,15.77
2023-01-21T08:55:47.250Z,13.88
2023-01-21T08:58:14.222Z,12.77
2023-01-21T09:00:42.025Z,13.63
2023-01-21T09:03:09.111Z,14.32
2023-01-21T09:05:36.497Z,14.82
2023-01-21T09:08:03.613Z,14.45
2023-01-21T09:10:49.325Z,14.00
2023-01-21T09:13:16.638Z,13.15
2023-01-21T09:15:44.456Z,14.02
2023-01-21T09:18:14.206Z,15.35
2023-01-21T09:20:41.337Z,16.10
2023-01-21T09:23:24.470Z,13.25
2023-01-21T09:26:05.296Z,14.32
2023-01-21T09:28:34.725Z,14.30
2023-01-21T09:31:07.870Z,12.63
2023-01-21T09:33:37.129Z,13.85
2023-01-21T09:36:06.811Z,15.30
2023-01-21T09:38:34.916Z,15.85
2023-01-21T09:41:40.815Z,15.88
2023-01-21T09:44:24.080Z,16.85
2023-01-21T09:46:56.970Z,16.88
2023-01-21T09:49:41.819Z,16.60
2023-01-21T09:52:27.698Z,16.58
2023-01-21T09:54:56.045Z,16.52
2023-01-21T09:57:34.810Z,15.70
2023-01-21T10:00:17.125Z,15.82
2023-01-21T10:03:05.141Z,13.70
2023-01-21T10:06:09.718Z,15.07
2023-01-21T10:08:48.590Z,14.00
2023-01-21T10:11:30.858Z,14.48
2023-01-21T10:14:22.614Z,13.07
2023-01-21T10:17:05.852Z,13.43
2023-01-21T10:19:53.144Z,12.85
2023-01-21T10:22:26.771Z,14.38
2023-01-21T10:24:57.142Z,15.13
2023-01-21T10:27:25.189Z,14.85
2023-01-21T10:29:57.621Z,15.13
2023-01-21T10:32:28.479Z,14.50
2023-01-21T10:34:57.834Z,15.45
2023-01-21T10:37:58.067Z,15.07
2023-01-21T10:40:45.894Z,15.02
2023-01-21T10:43:33.374Z,16.00
2023-01-21T10:46:20.654Z,14.65
2023-01-21T10:49:41.764Z,14.70
2023-01-21T10:52:25.293Z,15.10
2023-01-21T10:57:32.151Z,14.60
2023-01-21T11:00:01.970Z,17.63
2023-01-21T11:02:33.977Z,16.25
2023-01-21T11:05:04.320Z,16.90
2023-01-21T11:07:39.170Z,15.27
2023-01-21T11:10:07.731Z,14.10
2023-01-21T11:12:35.595Z,17.48
2023-01-21T11:15:13.030Z,15.23
2023-01-21T11:17:42.206Z,17.80
2023-01-21T11:20:23.808Z,20.38
2023-01-21T11:22:51.586Z,18.52
2023-01-21T11:25:33.015Z,17.25
2023-01-21T11:28:00.284Z,19.77
2023-01-21T11:30:50.269Z,19.67
2023-01-21T11:33:27.492Z,21.95
2023-01-21T11:35:58.528Z,21.17
2023-01-21T11:38:33.432Z,24.08
2023-01-21T11:41:16.844Z,24.05
2023-01-21T11:43:55.213Z,21.98
2023-01-21T11:46:40.056Z,22.45
2023-01-21T11:49:07.118Z,22.67
2023-01-21T11:51:38.870Z,22.48
2023-01-21T11:54:16.431Z,19.40
2023-01-21T11:56:52.399Z,19.20
2023-01-21T11:59:36.162Z,20.80
2023-01-21T12:02:19.844Z,20.17
2023-01-21T12:05:02.093Z,21.15
2023-01-21T12:07:38.430Z,18.98
2023-01-21T12:10:23.908Z,20.58
2023-01-21T12:12:59.769Z,20.08
2023-01-21T12:15:29.845Z,18.83
2023-01-21T12:18:09.412Z,18.40
2023-01-21T12:20:59.756Z,18.23
2023-01-21T12:23:51.957Z,19.88
2023-01-21T12:26:40.013Z,18.38
2023-01-21T12:31:52.726Z,16.95
2023-01-21T12:34:22.750Z,17.83
2023-01-21T12:37:09.778Z,19.85
2023-01-21T12:39:38.092Z,14.48
2023-01-21T12:42:14.473Z,17.02
2023-01-21T12:44:51.063Z,16.15
2023-01-21T12:47:28.157Z,17.80
2023-01-21T12:50:14.850Z,18.45
2023-01-21T12:52:55.868Z,18.05
2023-01-21T12:55:46.075Z,18.85
2023-01-21T12:58:16.175Z,19.75
2023-01-21T13:00:48.021Z,19.88
2023-01-21T13:03:36.567Z,19.13
2023-01-21T13:06:21.045Z,18.65
2023-01-21T13:09:07.733Z,19.00
2023-01-21T13:11:47.981Z,19.27
2023-01-21T13:14:46.723Z,18.92
2023-01-21T13:17:29.439Z,19.88
2023-01-21T13:19:56.551Z,20.48
2023-01-21T13:22:42.709Z,20.05
2023-01-21T13:25:28.605Z,17.70
2023-01-21T13:28:15.294Z,18.70
2023-01-21T13:30:52.874Z,22.58
2023-01-21T13:33:40.667Z,19.38
2023-01-21T13:36:28.143Z,17.52
2023-01-21T13:38:55.206Z,17.40
2023-01-21T13:42:04.833Z,18.30
2023-01-21T13:44:58.752Z,17.45
2023-01-21T13:50:29.320Z,16.80
2023-01-21T13:53:11.386Z,18.38
2023-01-21T13:56:03.660Z,18.80
2023-01-21T13:58:52.375Z,14.93
2023-01-21T14:01:33.622Z,16.95
2023-01-21T14:04:05.828Z,17.02
2023-01-21T14:06:43.967Z,18.50
2023-01-21T14:09:26.825Z,24.45
2023-01-21T14:12:02.077Z,22.75
2023-01-21T14:14:45.602Z,19.45
2023-01-21T14:17:21.604Z,24.08
2023-01-21T14:20:09.809Z,17.63
2023-01-21T14:22:45.693Z,21.63
2023-01-21T14:25:24.809Z,16.90
2023-01-21T14:28:12.997Z,17.13
2023-01-21T14:30:48.110Z,17.75
2023-01-21T14:33:25.083Z,16.95
2023-01-21T14:36:11.776Z,16.38
2023-01-21T14:38:57.305Z,15.93
2023-01-21T14:41:24.463Z,17.35
2023-01-21T14:43:53.152Z,16.50
2023-01-21T14:46:24.950Z,16.52
2023-01-21T14:49:00.402Z,16.63
2023-01-21T14:51:31.119Z,15.10
2023-01-21T14:54:02.373Z,15.43
2023-01-21T14:56:36.830Z,15.50
2023-01-21T14:59:25.232Z,14.18
2023-01-21T15:02:02.908Z,13.93
2023-01-21T15:04:35.436Z,14.70
2023-01-21T15:07:08.825Z,14.43
2023-01-21T15:09:42.349Z,14.02
2023-01-21T15:12:19.759Z,14.77
2023-01-21T15:14:47.738Z,15.25
2023-01-21T15:17:43.331Z,16.88
2023-01-21T15:20:44.358Z,15.40
2023-01-21T15:23:31.984Z,17.08
2023-01-21T15:26:09.099Z,17.95
2023-01-21T15:28:46.172Z,17.23
2023-01-21T15:31:23.670Z,16.95
2023-01-21T15:34:02.913Z,15.65
2023-01-21T15:36:32.870Z,16.33
2023-01-21T15:39:15.094Z,15.70
2023-01-21T15:42:04.005Z,17.65
2023-01-21T15:44:58.035Z,16.63
2023-01-21T15:48:00.042Z,17.17
2023-01-21T15:51:07.481Z,15.55
2023-01-21T15:54:10.840Z,16.20
2023-01-21T15:57:09.791Z,16.98
2023-01-21T16:00:06.749Z,17.60
2023-01-21T16:02:52.712Z,16.15
2023-01-21T16:05:27.090Z,15.77
2023-01-21T16:08:23.537Z,16.50
2023-01-21T16:11:06.877Z,14.85
2023-01-21T16:13:51.949Z,15.98
2023-01-21T16:16:35.855Z,16.13
2023-01-21T16:19:10.737Z,16.65
2023-01-21T16:21:48.867Z,17.35
2023-01-21T16:24:26.943Z,19.88
2023-01-21T16:26:55.538Z,17.40
2023-01-21T16:29:22.583Z,17.27
2023-01-21T16:32:00.009Z,19.80
2023-01-21T16:34:43.428Z,21.63
2023-01-21T16:37:19.325Z,20.05
2023-01-21T16:39:47.385Z,18.63
2023-01-21T16:42:36.855Z,17.10
2023-01-21T16:45:18.771Z,17.77
2023-01-21T16:48:00.831Z,19.40
2023-01-21T16:50:30.825Z,20.95
2023-01-21T16:53:00.624Z,20.20
2023-01-21T16:55:31.022Z,21.27
2023-01-21T16:57:59.725Z,19.38
2023-01-21T17:00:31.929Z,20.17
2023-01-21T17:03:00.071Z,19.48
2023-01-21T17:05:30.458Z,18.10
2023-01-21T17:08:01.234Z,18.98
2023-01-21T17:10:40.035Z,19.90
2023-01-21T17:13:15.544Z,20.08
2023-01-21T17:15:49.433Z,20.58
2023-01-21T17:18:30.622Z,20.63
2023-01-21T17:21:03.294Z,18.77
2023-01-21T17:23:40.191Z,18.63
2023-01-21T17:26:33.309Z,19.08
2023-01-21T17:29:17.827Z,21.05
2023-01-21T17:31:45.742Z,21.27
2023-01-21T17:34:15.717Z,18.67
2023-01-21T17:36:45.752Z,18.98
2023-01-21T17:39:13.467Z,17.40
2023-01-21T17:41:46.465Z,18.02
2023-01-21T17:44:32.708Z,17.00
2023-01-21T17:47:00.254Z,17.48
2023-01-21T17:49:27.514Z,16.98
2023-01-21T17:51:55.742Z,18.15
2023-01-21T17:54:22.901Z,16.50
2023-01-21T17:56:56.959Z,16.20
2023-01-21T17:59:26.968Z,17.70
2023-01-21T18:01:58.814Z,19.88
2023-01-21T18:04:26.068Z,18.85
2023-01-21T18:06:55.280Z,19.75
2023-01-21T18:09:25.385Z,19.38
2023-01-21T18:11:56.266Z,18.60
2023-01-21T18:14:26.430Z,19.52
2023-01-21T18:16:54.909Z,21.35
2023-01-21T18:19:40.359Z,42.67
2023-01-21T18:22:21.006Z,30.10
2023-01-21T18:24:49.660Z,28.17
2023-01-21T18:27:17.738Z,37.90
2023-01-21T18:29:46.240Z,41.28
2023-01-21T18:32:19.077Z,40.15
2023-01-21T18:34:47.185Z,34.13
2023-01-21T18:37:22.848Z,29.55
2023-01-21T18:39:50.138Z,30.48
2023-01-21T18:42:18.360Z,28.70
2023-01-21T18:44:45.835Z,28.05
2023-01-21T18:47:18.088Z,29.00
2023-01-21T18:49:46.003Z,28.45
2023-01-21T18:52:18.505Z,30.98
2023-01-21T18:54:45.997Z,33.42
2023-01-21T18:57:16.329Z,33.47
2023-01-21T18:59:43.560Z,38.67
2023-01-21T19:02:18.990Z,38.88
2023-01-21T19:04:47.452Z,38.17
2023-01-21T19:07:16.312Z,37.60
2023-01-21T19:09:46.127Z,37.85
2023-01-21T19:12:18.737Z,39.08
2023-01-21T19:14:46.041Z,38.10
2023-01-21T19:17:15.028Z,39.03
2023-01-21T19:19:42.613Z,38.75
2023-01-21T19:22:16.583Z,35.83
2023-01-21T19:24:43.875Z,32.05
2023-01-21T19:27:20.700Z,29.25
2023-01-21T19:29:47.822Z,27.25
2023-01-21T19:32:17.014Z,28.83
2023-01-21T19:34:44.424Z,27.05
2023-01-21T19:37:21.932Z,25.17
2023-01-21T19:39:49.163Z,26.17
2023-01-21T19:42:18.047Z,24.40
2023-01-21T19:44:45.223Z,23.70
2023-01-21T19:47:28.198Z,23.40
2023-01-21T19:49:55.503Z,25.00
2023-01-21T19:52:22.939Z,26.80
2023-01-21T19:54:55.220Z,25.52
2023-01-21T19:57:29.484Z,26.55
2023-01-21T20:00:02.854Z,26.40
2023-01-21T20:02:29.915Z,20.33
2023-01-21T20:04:57.667Z,25.60
2023-01-21T20:07:29.784Z,24.80
2023-01-21T20:09:57.608Z,25.70
2023-01-21T20:12:24.706Z,23.38
2023-01-21T20:14:53.119Z,23.02
2023-01-21T20:17:21.191Z,22.60
2023-01-21T20:19:48.434Z,22.42
2023-01-21T20:22:15.461Z,20.75
2023-01-21T20:24:43.685Z,19.92
2023-01-21T20:27:15.125Z,20.17
2023-01-21T20:29:49.548Z,20.83
2023-01-21T20:32:23.500Z,19.88
2023-01-21T20:34:51.847Z,19.67
2023-01-21T20:37:23.110Z,17.90
2023-01-21T20:39:51.051Z,17.02
2023-01-21T20:42:18.187Z,17.95
2023-01-21T20:44:48.946Z,17.80
2023-01-21T20:47:23.054Z,16.20
2023-01-21T20:50:00.285Z,14.50
2023-01-21T20:52:27.423Z,14.40
2023-01-21T20:54:54.459Z,14.57
2023-01-21T20:57:22.564Z,14.95
2023-01-21T20:59:57.267Z,14.95
2023-01-21T21:02:28.263Z,14.07
2023-01-21T21:04:56.998Z,14.98
2023-01-21T21:07:26.900Z,14.40
2023-01-21T21:09:57.110Z,14.10
2023-01-21T21:12:24.776Z,14.38
2023-01-21T21:14:53.319Z,14.60
2023-01-21T21:17:20.922Z,14.60
2023-01-21T21:19:48.475Z,13.77
2023-01-21T21:22:17.049Z,13.85
2023-01-21T21:24:48.015Z,13.80
2023-01-21T21:27:15.689Z,13.90
2023-01-21T21:29:42.765Z,14.95
2023-01-21T21:32:14.728Z,15.77
2023-01-21T21:34:42.900Z,14.15
2023-01-21T21:37:13.422Z,14.38
2023-01-21T21:39:43.037Z,13.85
2023-01-21T21:42:33.102Z,15.23
2023-01-21T21:45:00.383Z,13.88
2023-01-21T21:47:47.508Z,14.02
2023-01-21T21:50:15.617Z,18.63
2023-01-21T21:52:42.776Z,26.17
2023-01-21T21:55:14.545Z,26.60
2023-01-21T21:57:44.782Z,24.95
2023-01-21T22:00:13.690Z,26.60
2023-01-21T22:02:40.859Z,26.35
2023-01-21T22:05:12.347Z,24.83
2023-01-21T22:07:39.529Z,25.80
2023-01-21T22:10:08.099Z,25.15
2023-01-21T22:12:36.127Z,23.58
2023-01-21T22:15:03.365Z,24.55
2023-01-21T22:17:30.566Z,24.65
2023-01-21T22:19:57.813Z,24.88
2023-01-21T22:22:26.375Z,26.38
2023-01-21T22:24:54.792Z,24.23
2023-01-21T22:27:21.981Z,25.30
2023-01-21T22:29:49.019Z,25.35
2023-01-21T22:32:16.478Z,24.85
2023-01-21T22:34:44.315Z,22.10
2023-01-21T22:37:11.912Z,26.55
2023-01-21T22:39:41.121Z,24.92
2023-01-21T22:42:08.270Z,24.20
2023-01-21T22:44:36.664Z,26.15
2023-01-21T22:47:03.932Z,27.67
2023-01-21T22:49:30.910Z,25.52
2023-01-21T22:51:58.136Z,27.83
2023-01-21T22:54:25.248Z,27.33
2023-01-21T22:56:53.188Z,27.20
2023-01-21T22:59:20.655Z,27.92
2023-01-21T23:01:49.087Z,26.88
2023-01-21T23:04:17.596Z,29.80
2023-01-21T23:06:51.222Z,27.25
2023-01-21T23:09:23.741Z,29.90
2023-01-21T23:11:53.260Z,27.58
2023-01-21T23:14:24.874Z,26.45
2023-01-21T23:16:57.781Z,26.08
2023-01-21T23:19:30.953Z,25.27
2023-01-21T23:22:02.602Z,26.27
2023-01-21T23:24:34.248Z,26.13
2023-01-21T23:27:05.793Z,24.38
2023-01-21T23:29:37.744Z,23.75
2023-01-21T23:32:08.202Z,22.48
2023-01-21T23:34:40.785Z,22.13
2023-01-21T23:37:12.309Z,23.23
2023-01-21T23:39:43.710Z,22.95
2023-01-21T23:42:15.572Z,22.48
2023-01-21T23:44:47.347Z,22.20
2023-01-21T23:47:18.985Z,23.05
2023-01-21T23:49:48.469Z,20.92
2023-01-21T23:52:15.609Z,21.55
2023-01-21T23:54:46.200Z,22.50
2023-01-21T23:57:13.327Z,20.50
2023-01-21T23:59:40.339Z,20.50
